createdAt,value
2022-08-05T00:00:16.774Z,6.82
2022-08-05T00:02:51.505Z,5.93
2022-08-05T00:06:01.876Z,6.15
2022-08-05T00:08:32.912Z,10.05
2022-08-05T00:10:53.446Z,7.85
2022-08-05T00:13:19.983Z,6.25
2022-08-05T00:15:55.069Z,8.05
2022-08-05T00:18:23.480Z,7.47
2022-08-05T00:20:51.158Z,8.00
2022-08-05T00:23:44.287Z,8.43
2022-08-05T00:26:05.727Z,7.32
2022-08-05T00:28:32.627Z,7.50
2022-08-05T00:31:02.918Z,6.70
2022-08-05T00:34:56.662Z,5.60
2022-08-05T00:37:10.923Z,6.05
2022-08-05T00:39:04.625Z,7.47
2022-08-05T00:41:51.712Z,7.00
2022-08-05T00:44:19.047Z,6.60
2022-08-05T00:46:47.614Z,3.80
2022-08-05T00:49:21.053Z,6.78
2022-08-05T00:51:52.029Z,9.25
2022-08-05T00:54:19.314Z,7.20
2022-08-05T00:56:51.836Z,9.60
2022-08-05T00:59:19.343Z,11.05
2022-08-05T01:01:49.109Z,7.57
2022-08-05T01:04:16.182Z,7.85
2022-08-05T01:06:48.502Z,7.20
2022-08-05T01:09:17.402Z,5.85
2022-08-05T01:11:49.715Z,9.70
2022-08-05T01:14:33.823Z,6.35
2022-08-05T01:17:05.824Z,6.40
2022-08-05T01:20:01.880Z,8.93
2022-08-05T01:22:41.664Z,6.95
2022-08-05T01:25:55.792Z,5.63
2022-08-05T01:28:50.430Z,7.30
2022-08-05T01:31:44.535Z,4.97
2022-08-05T01:34:32.914Z,6.40
2022-08-05T01:37:04.005Z,5.82
2022-08-05T01:39:46.667Z,8.13
2022-08-05T01:42:18.009Z,5.57
2022-08-05T01:47:23.205Z,7.57
2022-08-05T01:50:01.847Z,5.40
2022-08-05T01:52:32.247Z,9.32
2022-08-05T01:55:04.564Z,8.63
2022-08-05T01:58:09.706Z,5.30
2022-08-05T02:00:30.511Z,5.38
2022-08-05T02:03:06.770Z,6.97
2022-08-05T02:05:53.481Z,8.07
2022-08-05T02:08:31.160Z,5.78
2022-08-05T02:11:23.592Z,9.00
2022-08-05T02:14:27.069Z,6.47
2022-08-05T02:16:59.410Z,10.15
2022-08-05T02:19:35.031Z,7.20
2022-08-05T02:22:03.832Z,6.35
2022-08-05T02:24:38.110Z,6.30
2022-08-05T02:27:09.923Z,6.13
2022-08-05T02:29:58.829Z,8.50
2022-08-05T02:32:30.975Z,7.20
2022-08-05T02:35:02.169Z,9.25
2022-08-05T02:37:43.281Z,6.18
2022-08-05T02:40:17.030Z,6.95
2022-08-05T02:42:52.724Z,5.90
2022-08-05T02:45:24.049Z,7.20
2022-08-05T02:48:06.711Z,5.82
2022-08-05T02:50:43.626Z,6.88
2022-08-05T02:53:16.120Z,7.72
2022-08-05T02:55:52.155Z,7.35
2022-08-05T02:58:26.590Z,7.30
2022-08-05T03:00:56.511Z,6.18
2022-08-05T03:03:23.447Z,7.40
2022-08-05T03:06:57.253Z,5.80
2022-08-05T03:08:42.543Z,5.40
2022-08-05T03:11:57.640Z,5.47
2022-08-05T03:14:13.529Z,6.22
2022-08-05T03:16:40.476Z,6.53
2022-08-05T03:19:17.080Z,4.82
2022-08-05T03:21:53.838Z,8.55
2022-08-05T03:24:29.404Z,5.78
2022-08-05T03:26:58.640Z,9.07
2022-08-05T03:29:44.796Z,7.93
2022-08-05T03:32:14.371Z,6.28
2022-08-05T03:34:42.715Z,7.10
2022-08-05T03:37:18.652Z,8.68
2022-08-05T03:40:01.079Z,7.53
2022-08-05T03:42:29.171Z,6.40
2022-08-05T03:44:58.615Z,5.20
2022-08-05T03:47:25.531Z,9.27
2022-08-05T03:49:57.428Z,8.93
2022-08-05T03:52:38.455Z,7.07
2022-08-05T03:56:04.960Z,6.90
2022-08-05T03:58:12.427Z,5.80
2022-08-05T04:00:41.913Z,8.30
2022-08-05T04:03:15.010Z,9.30
2022-08-05T04:05:56.786Z,4.95
2022-08-05T04:08:34.589Z,6.25
2022-08-05T04:11:04.798Z,8.82
2022-08-05T04:13:49.915Z,7.05
2022-08-05T04:16:24.281Z,5.30
2022-08-05T04:18:57.814Z,7.03
2022-08-05T04:22:10.163Z,7.20
2022-08-05T04:24:18.754Z,5.88
2022-08-05T04:26:46.471Z,8.40
2022-08-05T04:29:13.184Z,5.38
2022-08-05T04:31:41.058Z,6.00
2022-08-05T04:34:31.846Z,8.77
2022-08-05T04:36:56.329Z,7.45
2022-08-05T04:39:23.261Z,6.93
2022-08-05T04:41:51.183Z,7.05
2022-08-05T04:44:24.487Z,7.80
2022-08-05T04:46:58.818Z,4.45
2022-08-05T04:49:38.894Z,10.60
2022-08-05T04:52:13.032Z,6.82
2022-08-05T04:54:39.574Z,8.02
2022-08-05T04:57:06.266Z,8.50
2022-08-05T04:59:38.608Z,7.65
2022-08-05T05:02:41.270Z,5.93
2022-08-05T05:04:53.094Z,8.23
2022-08-05T05:07:29.728Z,5.80
2022-08-05T05:09:59.669Z,7.60
2022-08-05T05:12:29.390Z,5.67
2022-08-05T05:14:55.914Z,6.80
2022-08-05T05:17:24.532Z,11.63
2022-08-05T05:19:55.219Z,7.57
2022-08-05T05:22:26.312Z,8.55
2022-08-05T05:24:59.862Z,6.35
2022-08-05T05:27:44.137Z,5.32
2022-08-05T05:30:29.556Z,10.25
2022-08-05T05:33:00.825Z,8.45
2022-08-05T05:35:31.577Z,6.28
2022-08-05T05:38:09.502Z,8.18
2022-08-05T05:40:48.327Z,6.20
2022-08-05T05:43:27.736Z,7.20
2022-08-05T05:46:05.107Z,5.90
2022-08-05T05:48:32.451Z,6.05
2022-08-05T05:51:15.189Z,5.15
2022-08-05T05:53:54.062Z,6.38
2022-08-05T05:56:31.840Z,5.63
2022-08-05T05:59:03.241Z,8.18
2022-08-05T06:04:07.264Z,8.13
2022-08-05T06:06:34.828Z,8.80
2022-08-05T06:09:03.201Z,8.77
2022-08-05T06:11:31.042Z,11.27
2022-08-05T06:13:57.859Z,6.68
2022-08-05T06:16:32.708Z,6.83
2022-08-05T06:19:01.257Z,6.95
2022-08-05T06:21:35.900Z,7.43
2022-08-05T06:24:11.619Z,7.55
2022-08-05T06:26:51.531Z,7.60
2022-08-05T06:29:43.121Z,6.32
2022-08-05T06:32:26.186Z,6.95
2022-08-05T06:34:57.202Z,6.30
2022-08-05T06:37:56.390Z,5.30
2022-08-05T06:40:13.735Z,5.72
2022-08-05T06:42:40.610Z,5.03
2022-08-05T06:45:08.518Z,5.15
2022-08-05T06:48:47.408Z,6.95
2022-08-05T06:50:23.684Z,7.18
2022-08-05T06:52:58.663Z,6.55
2022-08-05T06:55:30.030Z,7.32
2022-08-05T06:58:29.580Z,7.10
2022-08-05T07:00:49.415Z,7.95
2022-08-05T07:03:17.015Z,7.88
2022-08-05T07:05:44.084Z,7.57
2022-08-05T07:08:13.069Z,5.97
2022-08-05T07:10:52.865Z,5.75
2022-08-05T07:13:58.256Z,7.70
2022-08-05T07:17:56.402Z,5.63
2022-08-05T07:22:28.943Z,6.93
2022-08-05T07:25:24.010Z,7.25
2022-08-05T07:28:00.688Z,4.68
2022-08-05T07:30:33.758Z,6.53
2022-08-05T07:33:08.866Z,5.05
2022-08-05T07:35:55.602Z,5.53
2022-08-05T07:38:33.618Z,6.30
2022-08-05T07:42:09.396Z,4.93
2022-08-05T07:43:59.187Z,4.32
2022-08-05T07:46:28.063Z,5.68
2022-08-05T07:49:02.984Z,4.15
2022-08-05T07:51:40.577Z,8.30
2022-08-05T07:54:15.216Z,5.40
2022-08-05T07:57:01.506Z,3.78
2022-08-05T07:59:38.908Z,3.00
2022-08-05T08:02:16.554Z,6.15
2022-08-05T08:04:45.471Z,6.80
2022-08-05T08:07:13.198Z,5.13
2022-08-05T08:09:40.182Z,4.90
2022-08-05T08:12:16.494Z,3.92
2022-08-05T08:14:54.026Z,4.40
2022-08-05T08:17:21.445Z,4.72
2022-08-05T08:20:21.697Z,3.17
2022-08-05T08:22:35.173Z,3.58
2022-08-05T08:25:01.984Z,3.45
2022-08-05T08:27:35.659Z,2.30
2022-08-05T08:30:19.609Z,4.13
2022-08-05T08:32:54.740Z,3.30
2022-08-05T08:35:21.333Z,2.97
2022-08-05T08:37:53.572Z,3.13
2022-08-05T08:40:23.743Z,3.65
2022-08-05T08:42:52.962Z,3.30
2022-08-05T08:45:27.063Z,2.50
2022-08-05T08:48:11.849Z,2.97
2022-08-05T08:51:03.885Z,2.53
2022-08-05T08:53:40.335Z,2.83
2022-08-05T08:56:11.837Z,3.63
2022-08-05T08:58:44.539Z,2.13
2022-08-05T09:01:16.241Z,2.28
2022-08-05T09:03:57.555Z,2.65
2022-08-05T09:06:29.260Z,1.80
2022-08-05T09:08:58.324Z,3.95
2022-08-05T09:11:51.638Z,2.80
2022-08-05T09:14:56.727Z,2.60
2022-08-05T09:17:08.126Z,5.90
2022-08-05T09:20:01.971Z,2.65
2022-08-05T09:22:31.750Z,2.47
2022-08-05T09:25:13.493Z,2.45
2022-08-05T09:28:04.169Z,3.53
2022-08-05T09:30:27.374Z,2.70
2022-08-05T09:33:01.423Z,2.58
2022-08-05T09:35:29.449Z,2.08
2022-08-05T09:38:17.510Z,3.25
2022-08-05T09:40:51.773Z,2.72
2022-08-05T09:43:45.693Z,2.75
2022-08-05T09:46:28.340Z,3.85
2022-08-05T09:49:07.595Z,2.90
2022-08-05T09:51:44.066Z,4.05
2022-08-05T09:54:21.350Z,3.35
2022-08-05T09:56:56.075Z,2.05
2022-08-05T09:59:27.624Z,3.70
2022-08-05T10:01:57.933Z,2.97
2022-08-05T10:04:35.936Z,2.90
2022-08-05T10:07:20.575Z,2.70
2022-08-05T10:10:14.325Z,4.53
2022-08-05T10:12:49.603Z,4.03
2022-08-05T10:15:21.037Z,5.28
2022-08-05T10:18:07.152Z,3.92
2022-08-05T10:20:36.035Z,2.95
2022-08-05T10:23:02.787Z,2.65
2022-08-05T10:25:30.331Z,3.10
2022-08-05T10:28:13.937Z,2.55
2022-08-05T10:32:47.786Z,2.15
2022-08-05T10:33:35.250Z,3.58
2022-08-05T10:36:04.473Z,2.47
2022-08-05T10:38:33.377Z,3.25
2022-08-05T10:41:03.903Z,7.90
2022-08-05T10:43:37.017Z,1.80
2022-08-05T10:46:08.497Z,2.50
2022-08-05T10:48:58.137Z,4.25
2022-08-05T10:51:57.788Z,3.58
2022-08-05T10:57:29.573Z,1.65
2022-08-05T11:00:20.546Z,2.00
2022-08-05T11:03:23.032Z,1.92
2022-08-05T11:06:03.980Z,3.17
2022-08-05T11:08:38.187Z,3.90
2022-08-05T11:11:41.947Z,3.10
2022-08-05T11:14:13.281Z,4.15
2022-08-05T11:16:56.016Z,4.90
2022-08-05T11:20:16.773Z,2.08
2022-08-05T11:22:37.363Z,3.50
2022-08-05T11:26:05.069Z,3.10
2022-08-05T11:28:17.241Z,2.13
2022-08-05T11:30:58.579Z,1.50
2022-08-05T11:33:43.728Z,1.55
2022-08-05T11:36:16.321Z,2.42
2022-08-05T11:39:01.550Z,1.80
2022-08-05T11:41:58.204Z,1.65
2022-08-05T11:44:40.257Z,2.85
2022-08-05T11:47:14.068Z,2.08
2022-08-05T11:49:43.331Z,1.40
2022-08-05T11:52:29.275Z,3.72
2022-08-05T11:54:58.355Z,2.60
2022-08-05T11:57:39.333Z,3.25
2022-08-05T12:00:31.645Z,3.58
2022-08-05T12:02:58.507Z,3.70
2022-08-05T12:05:36.460Z,1.98
2022-08-05T12:08:11.765Z,1.17
2022-08-05T12:10:48.799Z,4.05
2022-08-05T12:13:27.899Z,3.88
2022-08-05T12:16:17.441Z,2.83
2022-08-05T12:18:52.483Z,2.88
2022-08-05T12:21:31.841Z,4.40
2022-08-05T12:24:07.739Z,3.55
2022-08-05T12:26:44.020Z,1.83
2022-08-05T12:29:16.236Z,1.65
2022-08-05T12:32:01.871Z,2.03
2022-08-05T12:34:32.016Z,3.33
2022-08-05T12:37:01.352Z,2.00
2022-08-05T12:39:37.449Z,3.70
2022-08-05T12:42:17.977Z,3.10
2022-08-05T12:44:47.454Z,3.05
2022-08-05T12:47:26.533Z,3.30
2022-08-05T12:50:04.252Z,1.70
2022-08-05T12:52:38.740Z,3.80
2022-08-05T12:55:25.458Z,2.03
2022-08-05T12:58:48.828Z,2.35
2022-08-05T13:02:00.180Z,2.30
2022-08-05T13:03:33.129Z,2.20
2022-08-05T13:06:01.331Z,3.25
2022-08-05T13:08:32.341Z,1.77
2022-08-05T13:11:00.893Z,3.40
2022-08-05T13:14:06.379Z,2.67
2022-08-05T13:16:16.739Z,2.55
2022-08-05T13:18:57.851Z,4.88
2022-08-05T13:21:28.117Z,1.85
2022-08-05T13:24:04.502Z,2.65
2022-08-05T13:26:31.110Z,2.28
2022-08-05T13:28:59.348Z,2.58
2022-08-05T13:31:34.018Z,3.90
2022-08-05T13:34:20.917Z,5.05
2022-08-05T13:36:53.496Z,3.92
2022-08-05T13:39:24.534Z,3.22
2022-08-05T13:42:07.467Z,4.55
2022-08-05T13:44:45.021Z,2.97
2022-08-05T13:47:35.996Z,3.25
2022-08-05T13:50:04.637Z,3.42
2022-08-05T13:52:35.269Z,2.33
2022-08-05T13:55:02.436Z,5.93
2022-08-05T13:57:51.483Z,5.25
2022-08-05T14:00:27.624Z,7.68
2022-08-05T14:02:55.527Z,3.40
2022-08-05T14:05:48.574Z,3.00
2022-08-05T14:08:19.878Z,2.95
2022-08-05T14:10:48.404Z,2.73
2022-08-05T14:13:15.472Z,3.88
2022-08-05T14:16:04.817Z,2.63
2022-08-05T14:18:29.218Z,3.03
2022-08-05T14:20:55.837Z,2.58
2022-08-05T14:23:26.047Z,2.70
2022-08-05T14:25:58.465Z,2.80
2022-08-05T14:28:27.584Z,2.42
2022-08-05T14:30:59.054Z,2.85
2022-08-05T14:33:25.741Z,3.10
2022-08-05T14:35:54.449Z,2.33
2022-08-05T14:38:31.961Z,3.05
2022-08-05T14:41:06.266Z,3.53
2022-08-05T14:43:59.451Z,2.75
2022-08-05T14:46:28.186Z,6.22
2022-08-05T14:48:57.266Z,4.05
2022-08-05T14:51:23.771Z,5.43
2022-08-05T14:54:06.754Z,6.18
2022-08-05T14:56:38.111Z,3.53
2022-08-05T14:59:11.358Z,5.22
2022-08-05T15:01:47.963Z,3.00
2022-08-05T15:04:15.284Z,2.00
2022-08-05T15:06:42.174Z,4.63
2022-08-05T15:09:16.069Z,2.25
2022-08-05T15:12:03.900Z,3.83
2022-08-05T15:14:35.773Z,2.97
2022-08-05T15:17:44.249Z,4.40
2022-08-05T15:19:56.097Z,4.35
2022-08-05T15:22:26.979Z,1.92
2022-08-05T15:24:55.829Z,3.75
2022-08-05T15:27:22.315Z,2.05
2022-08-05T15:29:52.795Z,4.43
2022-08-05T15:32:28.574Z,1.90
2022-08-05T15:34:56.148Z,3.97
2022-08-05T15:38:32.775Z,3.10
2022-08-05T15:41:04.195Z,5.40
2022-08-05T15:43:01.620Z,2.70
2022-08-05T15:45:43.570Z,3.08
2022-08-05T15:48:14.390Z,3.95
2022-08-05T15:50:41.620Z,3.17
2022-08-05T15:53:10.744Z,4.03
2022-08-05T15:56:01.925Z,3.45
2022-08-05T15:58:26.463Z,3.17
2022-08-05T16:01:04.319Z,2.88
2022-08-05T16:03:40.943Z,4.70
2022-08-05T16:06:08.387Z,4.00
2022-08-05T16:08:38.238Z,3.47
2022-08-05T16:11:05.082Z,5.35
2022-08-05T16:13:31.936Z,3.90
2022-08-05T16:16:03.382Z,3.03
2022-08-05T16:18:30.556Z,2.95
2022-08-05T16:20:57.430Z,3.85
2022-08-05T16:23:24.233Z,3.08
2022-08-05T16:25:55.824Z,3.20
2022-08-05T16:28:24.234Z,5.88
2022-08-05T16:30:52.199Z,3.70
2022-08-05T16:33:19.429Z,2.47
2022-08-05T16:35:49.895Z,2.42
2022-08-05T16:38:25.631Z,5.60
2022-08-05T16:41:00.578Z,1.35
2022-08-05T16:43:30.433Z,4.38
2022-08-05T16:46:04.851Z,1.75
2022-08-05T16:48:36.430Z,1.90
2022-08-05T16:51:08.759Z,2.30
2022-08-05T16:54:04.249Z,2.40
2022-08-05T16:56:24.823Z,2.30
2022-08-05T16:58:51.530Z,2.97
2022-08-05T17:01:18.913Z,2.50
2022-08-05T17:03:46.021Z,3.38
2022-08-05T17:06:12.949Z,5.50
2022-08-05T17:08:52.854Z,2.67
2022-08-05T17:11:25.189Z,1.95
2022-08-05T17:14:05.511Z,2.80
2022-08-05T17:16:36.123Z,3.55
2022-08-05T17:19:07.533Z,2.67
2022-08-05T17:21:37.267Z,3.45
2022-08-05T17:24:19.496Z,3.95
2022-08-05T17:26:56.283Z,2.25
2022-08-05T17:29:33.887Z,3.30
2022-08-05T17:32:11.875Z,3.90
2022-08-05T17:34:49.119Z,3.60
2022-08-05T17:37:39.440Z,2.22
2022-08-05T17:40:10.303Z,3.60
2022-08-05T17:42:41.830Z,3.25
2022-08-05T17:45:20.596Z,5.00
2022-08-05T17:47:53.394Z,6.13
2022-08-05T17:50:28.888Z,3.20
2022-08-05T17:53:01.337Z,6.95
2022-08-05T17:55:37.353Z,1.67
2022-08-05T17:58:09.624Z,2.67
2022-08-05T18:00:40.771Z,3.28
2022-08-05T18:03:28.185Z,3.15
2022-08-05T18:06:04.002Z,5.00
2022-08-05T18:08:33.036Z,4.57
2022-08-05T18:11:00.972Z,3.67
2022-08-05T18:13:36.829Z,4.90
2022-08-05T18:16:13.522Z,4.07
2022-08-05T18:18:41.373Z,2.67
2022-08-05T18:21:21.225Z,5.18
2022-08-05T18:23:49.829Z,3.17
2022-08-05T18:26:20.948Z,5.88
2022-08-05T18:28:54.709Z,4.88
2022-08-05T18:31:23.464Z,4.88
2022-08-05T18:33:51.742Z,3.17
2022-08-05T18:36:19.264Z,3.38
2022-08-05T18:38:46.648Z,3.38
2022-08-05T18:41:56.462Z,3.30
2022-08-05T18:44:06.670Z,4.40
2022-08-05T18:46:34.564Z,5.93
2022-08-05T18:49:23.341Z,4.15
2022-08-05T18:52:15.493Z,5.30
2022-08-05T18:54:45.956Z,4.13
2022-08-05T18:57:15.010Z,4.80
2022-08-05T19:00:01.702Z,6.10
2022-08-05T19:02:29.072Z,6.28
2022-08-05T19:05:02.460Z,3.80
2022-08-05T19:07:47.704Z,4.57
2022-08-05T19:10:15.109Z,4.78
2022-08-05T19:12:43.117Z,4.38
2022-08-05T19:15:25.219Z,5.15
2022-08-05T19:18:08.739Z,5.15
2022-08-05T19:24:03.556Z,4.72
2022-08-05T19:26:02.547Z,5.40
2022-08-05T19:28:34.816Z,4.10
2022-08-05T19:31:01.493Z,3.17
2022-08-05T19:33:36.224Z,4.47
2022-08-05T19:36:06.990Z,4.63
2022-08-05T19:38:37.051Z,6.22
2022-08-05T19:41:07.205Z,5.13
2022-08-05T19:44:05.805Z,3.97
2022-08-05T19:46:29.483Z,4.68
2022-08-05T19:48:57.778Z,4.05
2022-08-05T19:52:05.070Z,7.30
2022-08-05T19:54:21.903Z,3.50
2022-08-05T19:56:56.216Z,6.05
2022-08-05T19:59:55.476Z,2.33
2022-08-05T20:02:11.027Z,3.22
2022-08-05T20:04:38.168Z,5.15
2022-08-05T20:07:13.184Z,4.38
2022-08-05T20:12:23.457Z,5.32
2022-08-05T20:14:52.469Z,3.90
2022-08-05T20:17:19.839Z,5.60
2022-08-05T20:19:50.621Z,5.65
2022-08-05T20:22:17.296Z,4.53
2022-08-05T20:24:47.104Z,6.13
2022-08-05T20:27:15.826Z,5.00
2022-08-05T20:29:42.598Z,4.38
2022-08-05T20:32:25.160Z,5.60
2022-08-05T20:34:51.959Z,3.00
2022-08-05T20:38:04.909Z,2.90
2022-08-05T20:40:05.807Z,5.60
2022-08-05T20:42:33.247Z,4.88
2022-08-05T20:44:59.760Z,5.25
2022-08-05T20:47:32.210Z,6.38
2022-08-05T20:49:59.381Z,3.85
2022-08-05T20:52:26.341Z,5.25
2022-08-05T20:54:59.703Z,3.88
2022-08-05T20:57:43.942Z,4.72
2022-08-05T21:00:40.310Z,3.17
2022-08-05T21:03:06.959Z,5.55
2022-08-05T21:05:47.601Z,4.85
2022-08-05T21:08:20.927Z,7.38
2022-08-05T21:10:53.605Z,3.92
2022-08-05T21:13:26.582Z,3.13
2022-08-05T21:16:09.117Z,4.20
2022-08-05T21:18:35.830Z,5.22
2022-08-05T21:21:02.468Z,3.72
2022-08-05T21:23:29.261Z,4.13
2022-08-05T21:26:04.235Z,5.32
2022-08-05T21:28:48.044Z,7.03
2022-08-05T21:31:17.995Z,4.57
2022-08-05T21:33:47.878Z,4.50
2022-08-05T21:36:27.504Z,5.72
2022-08-05T21:41:24.646Z,4.95
2022-08-05T21:44:03.828Z,4.47
2022-08-05T21:46:34.624Z,4.57
2022-08-05T21:49:04.576Z,5.93
2022-08-05T21:52:22.219Z,4.35
2022-08-05T21:54:27.908Z,6.75
2022-08-05T21:57:29.277Z,5.32
2022-08-05T22:00:02.930Z,5.50
2022-08-05T22:02:30.710Z,4.10
2022-08-05T22:04:58.809Z,4.25
2022-08-05T22:07:54.167Z,6.55
2022-08-05T22:10:26.651Z,5.20
2022-08-05T22:12:54.098Z,6.90
2022-08-05T22:16:02.654Z,5.00
2022-08-05T22:18:07.245Z,5.18
2022-08-05T22:20:39.151Z,4.82
2022-08-05T22:24:03.171Z,3.83
2022-08-05T22:26:31.270Z,5.47
2022-08-05T22:28:58.115Z,3.85
2022-08-05T22:31:24.929Z,6.45
2022-08-05T22:34:01.320Z,5.28
2022-08-05T22:36:29.582Z,4.80
2022-08-05T22:38:56.833Z,7.43
2022-08-05T22:42:05.044Z,3.70
2022-08-05T22:44:12.094Z,5.15
2022-08-05T22:46:40.055Z,5.43
2022-08-05T22:49:23.620Z,5.88
2022-08-05T22:52:04.911Z,4.07
2022-08-05T22:54:33.459Z,4.28
2022-08-05T22:57:01.728Z,3.63
2022-08-05T22:59:48.449Z,3.88
2022-08-05T23:02:28.921Z,5.20
2022-08-05T23:04:57.878Z,4.32
2022-08-05T23:07:28.678Z,3.55
2022-08-05T23:10:01.143Z,3.92
2022-08-05T23:12:32.431Z,4.05
2022-08-05T23:15:03.503Z,4.07
2022-08-05T23:17:35.019Z,4.97
2022-08-05T23:20:10.511Z,3.28
2022-08-05T23:22:43.605Z,3.60
2022-08-05T23:27:57.913Z,3.40
2022-08-05T23:30:29.240Z,4.20
2022-08-05T23:35:28.577Z,5.57
2022-08-05T23:38:01.585Z,2.63
2022-08-05T23:40:28.285Z,5.63
2022-08-05T23:42:54.858Z,4.65
2022-08-05T23:45:23.739Z,3.97
2022-08-05T23:47:53.804Z,3.43
2022-08-05T23:50:26.060Z,3.33
2022-08-05T23:52:55.248Z,4.28
2022-08-05T23:55:22.402Z,3.90
2022-08-05T23:57:52.917Z,6.03
